Time;durP1;ratioP1;P1;durP2;ratioP2;P2;SDS_P1;SDS_P2;PMS_P1;PMS_P2;Temp;Humidity;BMP_temperature;BMP_pressure;BME280_temperature;BME280_humidity;BME280_pressure;Samples;Min_cycle;Max_cycle;Signal;HPM_P1;HPM_P2
2021/07/05 00:00:37;;;;;;;9.33;8.43;;;20.80;99.90;;;;;;5037817;28;20494;-83
2021/07/05 00:03:05;;;;;;;9.80;8.40;;;20.80;99.90;;;;;;5038047;28;20404;-84
2021/07/05 00:05:33;;;;;;;10.17;9.23;;;20.70;99.90;;;;;;5036797;28;20467;-84
2021/07/05 00:08:01;;;;;;;9.50;8.60;;;20.70;99.90;;;;;;5040395;28;20443;-84
2021/07/05 00:10:31;;;;;;;16.00;14.27;;;20.60;99.90;;;;;;5040303;28;20387;-83
2021/07/05 00:12:59;;;;;;;9.43;8.63;;;20.50;99.90;;;;;;5041990;28;20431;-84
2021/07/05 00:15:31;;;;;;;8.47;6.80;;;20.50;99.90;;;;;;5041577;28;20516;-83
2021/07/05 00:18:00;;;;;;;8.30;7.60;;;20.50;99.90;;;;;;5038806;28;20420;-84
2021/07/05 00:20:30;;;;;;;8.17;7.47;;;20.40;99.90;;;;;;5040505;28;20897;-84
2021/07/05 00:22:59;;;;;;;10.97;9.90;;;20.40;99.90;;;;;;5039638;28;20433;-84
2021/07/05 00:25:30;;;;;;;8.60;7.87;;;20.30;99.90;;;;;;5039372;28;20499;-84
2021/07/05 00:27:58;;;;;;;11.60;10.60;;;20.30;99.90;;;;;;5041314;28;20430;-83
2021/07/05 00:30:27;;;;;;;10.37;9.37;;;20.20;99.90;;;;;;5037388;28;20502;-82
2021/07/05 00:32:55;;;;;;;11.03;9.93;;;20.20;99.90;;;;;;5040409;28;20387;-81
2021/07/05 00:35:26;;;;;;;9.30;8.43;;;20.10;99.90;;;;;;5045346;28;20955;-82
2021/07/05 00:37:55;;;;;;;9.10;8.27;;;20.10;99.90;;;;;;5050671;28;20425;-82
2021/07/05 00:40:25;;;;;;;9.70;8.90;;;20.10;99.90;;;;;;5051868;28;20843;-82
2021/07/05 00:42:55;;;;;;;10.47;9.60;;;20.00;99.90;;;;;;5051147;28;20463;-82
2021/07/05 00:45:25;;;;;;;11.00;9.90;;;20.00;99.90;;;;;;5039604;28;20465;-83
2021/07/05 00:47:53;;;;;;;9.97;9.03;;;20.00;99.90;;;;;;5040570;28;20482;-83
2021/07/05 00:50:24;;;;;;;10.10;9.10;;;20.00;99.90;;;;;;5038771;28;20383;-82
2021/07/05 00:52:55;;;;;;;9.53;8.63;;;20.00;99.90;;;;;;5039922;28;20403;-82
2021/07/05 00:55:24;;;;;;;13.60;10.30;;;20.00;99.90;;;;;;5041622;28;20407;-83
2021/07/05 00:57:54;;;;;;;10.07;9.03;;;20.00;99.90;;;;;;5038364;28;20911;-83
2021/07/05 01:00:25;;;;;;;10.67;9.67;;;19.90;99.90;;;;;;5038792;28;20474;-83
2021/07/05 01:02:54;;;;;;;11.83;10.03;;;19.90;99.90;;;;;;5039258;28;20422;-83
2021/07/05 01:05:23;;;;;;;10.63;9.57;;;19.80;99.90;;;;;;5040991;28;20837;-82
2021/07/05 01:07:52;;;;;;;10.23;9.10;;;19.80;99.90;;;;;;5038210;28;20395;-83
2021/07/05 01:10:21;;;;;;;10.90;9.63;;;19.70;99.90;;;;;;5037661;28;20394;-82
2021/07/05 01:12:51;;;;;;;10.60;9.60;;;19.70;99.90;;;;;;5040880;28;20407;-82
2021/07/05 01:15:22;;;;;;;11.20;9.43;;;19.70;99.90;;;;;;5037136;28;20449;-83
2021/07/05 01:17:51;;;;;;;11.77;10.67;;;19.80;99.90;;;;;;5037606;28;20399;-84
2021/07/05 01:20:22;;;;;;;12.30;11.00;;;19.80;99.90;;;;;;5037202;28;20419;-83
2021/07/05 01:22:51;;;;;;;11.53;10.53;;;19.70;99.90;;;;;;5037412;28;21015;-84
2021/07/05 01:25:23;;;;;;;11.83;10.70;;;19.70;99.90;;;;;;5035795;28;20434;-83
2021/07/05 01:27:52;;;;;;;11.60;10.50;;;19.70;99.90;;;;;;5036114;28;20418;-84
2021/07/05 01:30:21;;;;;;;10.90;10.00;;;19.70;99.90;;;;;;5042547;28;20424;-84
2021/07/05 01:32:51;;;;;;;11.03;10.03;;;19.70;99.90;;;;;;5040631;28;20418;-84
2021/07/05 01:35:20;;;;;;;11.77;10.77;;;19.70;99.90;;;;;;5046399;28;20486;-82
2021/07/05 01:37:48;;;;;;;11.87;10.63;;;19.70;99.90;;;;;;5049431;28;20391;-81
2021/07/05 01:40:18;;;;;;;11.07;9.97;;;19.70;99.90;;;;;;5046605;28;20387;-83
2021/07/05 01:42:51;;;;;;;11.30;10.27;;;19.70;99.90;;;;;;5036493;28;20437;-83
2021/07/05 01:45:20;;;;;;;12.60;11.50;;;19.60;99.90;;;;;;5037984;28;20427;-82
2021/07/05 01:47:49;;;;;;;10.40;9.50;;;19.50;99.90;;;;;;5041017;28;20391;-84
2021/07/05 01:50:18;;;;;;;11.17;10.00;;;19.50;99.90;;;;;;5040416;28;20446;-83
2021/07/05 01:52:46;;;;;;;12.93;10.40;;;19.50;99.90;;;;;;5042320;28;21222;-83
2021/07/05 01:55:14;;;;;;;12.30;11.03;;;19.40;99.90;;;;;;5041768;28;20422;-83
2021/07/05 01:57:44;;;;;;;12.33;11.13;;;19.30;99.90;;;;;;5050211;28;20971;-82
2021/07/05 02:00:16;;;;;;;12.80;11.50;;;19.30;99.90;;;;;;5049764;28;20443;-82
2021/07/05 02:02:45;;;;;;;10.70;9.80;;;19.20;99.90;;;;;;5050202;28;20464;-82
2021/07/05 02:05:18;;;;;;;13.80;12.50;;;19.20;99.90;;;;;;5048504;28;20451;-83
2021/07/05 02:07:47;;;;;;;12.20;11.03;;;19.10;99.90;;;;;;5051361;28;20432;-81
2021/07/05 02:10:19;;;;;;;12.87;11.43;;;19.10;99.90;;;;;;5054015;28;20498;-81
2021/07/05 02:12:49;;;;;;;12.97;11.60;;;19.10;99.90;;;;;;5054511;28;20399;-85
2021/07/05 02:15:18;;;;;;;15.33;13.93;;;19.10;99.90;;;;;;5055352;28;20471;-82
2021/07/05 02:17:46;;;;;;;13.20;12.00;;;19.00;99.90;;;;;;5043545;28;20444;-82
2021/07/05 02:20:19;;;;;;;11.97;10.83;;;19.00;99.90;;;;;;5043920;28;20429;-83
2021/07/05 02:22:50;;;;;;;11.57;10.47;;;19.10;99.90;;;;;;5042903;28;20460;-84
2021/07/05 02:25:19;;;;;;;13.10;12.00;;;19.10;99.90;;;;;;5045521;28;20457;-84
2021/07/05 02:27:49;;;;;;;11.23;10.23;;;19.00;99.90;;;;;;5051943;28;20395;-84
2021/07/05 02:30:19;;;;;;;13.13;11.83;;;19.10;99.90;;;;;;5058505;28;20399;-84
2021/07/05 02:32:48;;;;;;;12.00;10.90;;;19.10;99.90;;;;;;5059294;28;20394;-84
2021/07/05 02:35:19;;;;;;;13.60;12.40;;;19.00;99.90;;;;;;5058071;28;20470;-85
2021/07/05 02:37:49;;;;;;;11.97;10.97;;;19.10;99.90;;;;;;5049133;28;20728;-82
2021/07/05 02:40:19;;;;;;;13.73;12.40;;;19.00;99.90;;;;;;5040021;28;20888;-82
2021/07/05 02:42:50;;;;;;;13.17;11.87;;;19.00;99.90;;;;;;5038711;28;20442;-83
2021/07/05 02:45:22;;;;;;;12.60;11.30;;;19.00;99.90;;;;;;5039874;28;20498;-84
2021/07/05 02:47:51;;;;;;;13.80;12.50;;;19.00;99.90;;;;;;5040679;28;20426;-83
2021/07/05 02:50:20;;;;;;;13.70;11.73;;;19.00;99.90;;;;;;5043095;28;20463;-82
2021/07/05 02:52:49;;;;;;;12.80;11.60;;;19.00;99.90;;;;;;5041797;28;20410;-83
2021/07/05 02:55:17;;;;;;;12.77;11.57;;;18.80;99.90;;;;;;5040427;28;20475;-83
2021/07/05 02:57:46;;;;;;;13.33;11.97;;;18.70;99.90;;;;;;5041095;28;20416;-83
2021/07/05 03:00:18;;;;;;;13.57;12.27;;;18.70;99.90;;;;;;5041294;28;20398;-82
2021/07/05 03:02:48;;;;;;;15.30;13.03;;;18.80;99.90;;;;;;5041152;28;20422;-83
2021/07/05 03:05:22;;;;;;;16.03;13.97;;;18.60;99.90;;;;;;5051422;28;20455;-84
2021/07/05 03:07:51;;;;;;;15.43;13.83;;;18.70;99.90;;;;;;5043215;28;21023;-84
2021/07/05 03:10:21;;;;;;;14.73;13.27;;;18.70;99.90;;;;;;5040904;28;20470;-84
2021/07/05 03:12:50;;;;;;;14.37;13.00;;;18.70;99.90;;;;;;5040213;28;20387;-84
2021/07/05 03:15:20;;;;;;;14.50;13.00;;;18.70;99.90;;;;;;5039293;28;20440;-83
2021/07/05 03:17:50;;;;;;;13.97;12.17;;;18.80;99.90;;;;;;5040547;28;20387;-83
2021/07/05 03:20:21;;;;;;;12.43;11.33;;;19.00;99.90;;;;;;5039424;28;20399;-83
2021/07/05 03:22:51;;;;;;;13.33;12.13;;;19.00;99.90;;;;;;5049628;28;20483;-84
2021/07/05 03:25:21;;;;;;;14.20;12.80;;;19.20;99.90;;;;;;5049054;28;20511;-83
2021/07/05 03:27:50;;;;;;;14.50;13.10;;;19.20;99.90;;;;;;5050614;28;20412;-82
2021/07/05 03:30:21;;;;;;;15.20;13.60;;;19.40;99.90;;;;;;5045048;28;20415;-85
2021/07/05 03:32:50;;;;;;;14.30;12.93;;;19.40;99.90;;;;;;5039700;28;20403;-84
2021/07/05 03:35:20;;;;;;;14.37;13.07;;;19.50;99.90;;;;;;5048647;22;21219;-78
2021/07/05 03:37:49;;;;;;;12.77;11.50;;;19.60;99.90;;;;;;5016893;28;20433;-79
2021/07/05 03:40:20;;;;;;;13.57;11.97;;;19.90;99.90;;;;;;5017431;28;20400;-78
2021/07/05 03:42:49;;;;;;;13.00;11.87;;;20.10;99.90;;;;;;5016603;28;20514;-78
2021/07/05 03:45:21;;;;;;;15.33;11.30;;;20.30;99.90;;;;;;5015794;28;20512;-79
2021/07/05 03:47:49;;;;;;;12.43;11.33;;;20.40;99.90;;;;;;5016439;28;20433;-78
2021/07/05 03:50:19;;;;;;;10.97;9.97;;;20.50;99.90;;;;;;5015556;28;20440;-79
2021/07/05 03:52:48;;;;;;;12.57;11.50;;;20.70;99.90;;;;;;5016334;28;20405;-78
2021/07/05 03:55:18;;;;;;;11.87;10.90;;;21.10;99.90;;;;;;5017118;28;20427;-79
2021/07/05 03:57:47;;;;;;;13.63;12.30;;;21.70;99.90;;;;;;5017046;28;20495;-80
2021/07/05 04:00:17;;;;;;;13.57;12.00;;;22.40;99.90;;;;;;5017030;28;20799;-80
2021/07/05 04:02:47;;;;;;;12.43;11.27;;;23.00;99.90;;;;;;5017713;28;20452;-80
2021/07/05 04:05:16;;;;;;;13.00;11.80;;;23.40;99.90;;;;;;5016790;28;20452;-79
2021/07/05 04:07:44;;;;;;;13.80;12.40;;;23.80;99.90;;;;;;5016137;28;20488;-79
2021/07/05 04:10:14;;;;;;;14.03;12.67;;;24.20;99.90;;;;;;5016193;28;20388;-80
2021/07/05 04:12:43;;;;;;;13.23;12.03;;;24.70;99.90;;;;;;5017995;28;20421;-80
2021/07/05 04:15:14;;;;;;;12.13;11.03;;;24.80;99.90;;;;;;5015866;28;20511;-79
2021/07/05 04:17:42;;;;;;;13.73;12.60;;;24.50;99.90;;;;;;5017734;28;20436;-80
2021/07/05 04:20:15;;;;;;;11.30;10.37;;;24.20;99.90;;;;;;5017645;28;20387;-79
2021/07/05 04:22:44;;;;;;;11.40;10.40;;;24.40;99.90;;;;;;5017401;28;20407;-79
2021/07/05 04:25:14;;;;;;;11.30;10.40;;;24.40;99.90;;;;;;5016997;28;20452;-80
2021/07/05 04:27:44;;;;;;;12.67;11.57;;;24.30;99.90;;;;;;5015915;28;20437;-80
2021/07/05 04:30:13;;;;;;;13.03;11.03;;;24.30;99.90;;;;;;5017257;28;20639;-80
2021/07/05 04:32:41;;;;;;;13.80;12.50;;;24.80;99.90;;;;;;5018649;28;20456;-80
2021/07/05 04:35:14;;;;;;;12.83;11.63;;;25.60;99.90;;;;;;5018534;28;20449;-80
2021/07/05 04:37:44;;;;;;;13.93;12.63;;;25.80;99.90;;;;;;5018584;28;20842;-80
2021/07/05 04:40:15;;;;;;;12.83;11.70;;;25.50;99.90;;;;;;5017583;28;20465;-80
2021/07/05 04:42:44;;;;;;;16.70;12.63;;;25.00;99.90;;;;;;5018172;28;20453;-80
2021/07/05 04:45:15;;;;;;;12.43;11.30;;;24.80;99.90;;;;;;5020206;28;20465;-80
2021/07/05 04:47:43;;;;;;;11.90;10.77;;;25.40;99.90;;;;;;5022261;28;20448;-80
2021/07/05 04:50:16;;;;;;;13.00;11.80;;;26.30;99.90;;;;;;5025643;28;20511;-80
2021/07/05 04:52:45;;;;;;;12.97;11.77;;;26.80;99.90;;;;;;5025212;28;20417;-80
2021/07/05 04:55:15;;;;;;;11.77;10.67;;;26.40;99.90;;;;;;5023747;28;20437;-80
2021/07/05 04:57:44;;;;;;;12.93;10.20;;;25.80;99.90;;;;;;5019946;28;20414;-81
2021/07/05 05:00:19;;;;;;;13.33;12.23;;;25.50;99.90;;;;;;5018341;28;20796;-81
2021/07/05 05:02:52;;;;;;;10.73;9.83;;;25.40;99.90;;;;;;5018662;28;20413;-80
2021/07/05 05:05:22;;;;;;;12.77;11.47;;;25.80;99.90;;;;;;5017684;28;20468;-81
2021/07/05 05:07:51;;;;;;;13.40;12.27;;;26.90;99.90;;;;;;5017196;28;20824;-81
2021/07/05 05:10:20;;;;;;;11.50;10.50;;;27.70;99.90;;;;;;5017097;28;20959;-80
2021/07/05 05:12:49;;;;;;;12.00;10.90;;;28.00;99.90;;;;;;5016618;28;20785;-81
2021/07/05 05:15:19;;;;;;;15.80;12.70;;;27.20;99.90;;;;;;5018992;28;20503;-82
2021/07/05 05:17:48;;;;;;;12.90;11.80;;;27.70;99.90;;;;;;5005871;28;20455;-82
2021/07/05 05:20:18;;;;;;;11.40;10.30;;;28.60;99.90;;;;;;4997347;28;20479;-82
2021/07/05 05:22:49;;;;;;;11.87;10.93;;;29.50;99.90;;;;;;5002309;28;20817;-81
2021/07/05 05:25:18;;;;;;;11.73;10.53;;;30.40;99.90;;;;;;5000519;28;20484;-81
2021/07/05 05:27:47;;;;;;;12.53;11.53;;;30.20;99.90;;;;;;4982920;28;20442;-80
2021/07/05 05:30:18;;;;;;;10.93;9.93;;;30.20;99.90;;;;;;4983722;28;20431;-80
2021/07/05 05:32:48;;;;;;;11.87;10.77;;;30.50;99.90;;;;;;4984102;28;20435;-80
2021/07/05 05:35:19;;;;;;;12.10;10.90;;;30.80;99.90;;;;;;5001006;28;20462;-81
2021/07/05 05:37:51;;;;;;;11.97;10.97;;;31.50;99.90;;;;;;5003769;28;20429;-81
2021/07/05 05:40:20;;;;;;;13.57;12.30;;;29.70;99.90;;;;;;5002744;28;20441;-80
2021/07/05 05:42:49;;;;;;;12.40;11.30;;;28.60;99.90;;;;;;5002419;28;20503;-80
2021/07/05 05:45:18;;;;;;;10.80;9.90;;;26.90;99.90;;;;;;5003177;28;20476;-81
2021/07/05 05:47:46;;;;;;;12.87;11.70;;;25.70;99.90;;;;;;5002343;28;20496;-80
2021/07/05 05:50:16;;;;;;;13.80;12.47;;;25.10;99.90;;;;;;5004670;28;20422;-80
2021/07/05 05:52:44;;;;;;;14.40;11.83;;;24.20;99.90;;;;;;5001912;28;20461;-81
2021/07/05 05:55:14;;;;;;;12.83;11.67;;;23.70;99.90;;;;;;5003110;28;20513;-80
2021/07/05 05:57:43;;;;;;;13.87;12.67;;;23.40;99.90;;;;;;5000936;28;20430;-80
2021/07/05 06:00:16;;;;;;;13.40;12.23;;;23.40;1.00;;;;;;5002291;28;20461;-79
2021/07/05 06:02:44;;;;;;;12.93;11.80;;;23.50;1.00;;;;;;5000238;28;20865;-80
2021/07/05 06:05:13;;;;;;;12.30;11.07;;;23.30;1.00;;;;;;5002239;28;20481;-81
2021/07/05 06:07:50;;;;;;;14.30;12.60;;;23.20;1.00;;;;;;5003342;28;20424;-80
2021/07/05 06:10:26;;;;;;;11.43;10.53;;;23.40;1.00;;;;;;5003617;28;20440;-81
2021/07/05 06:12:56;;;;;;;15.27;13.87;;;23.40;1.00;;;;;;4998733;28;20488;-80
2021/07/05 06:15:25;;;;;;;10.77;9.77;;;23.50;1.00;;;;;;4999639;28;20537;-80
2021/07/05 06:18:00;;;;;;;12.73;11.50;;;23.50;1.00;;;;;;5003014;28;20416;-83
2021/07/05 06:20:29;;;;;;;12.23;11.23;;;23.40;1.00;;;;;;5003026;28;20421;-80
2021/07/05 06:23:14;;;;;;;11.40;10.40;;;23.30;1.00;;;;;;5002486;28;20418;-81
2021/07/05 06:25:43;;;;;;;10.60;9.33;;;23.10;1.00;;;;;;5003744;28;20477;-81
2021/07/05 06:28:12;;;;;;;10.97;9.70;;;23.10;1.00;;;;;;5011449;28;20442;-81
2021/07/05 06:30:40;;;;;;;11.27;10.27;;;23.10;1.00;;;;;;5007758;28;20447;-80
2021/07/05 06:33:08;;;;;;;10.43;9.53;;;23.20;1.00;;;;;;5013202;28;20430;-80
2021/07/05 06:35:36;;;;;;;11.33;10.33;;;23.40;1.00;;;;;;5013439;28;20475;-83
2021/07/05 06:38:05;;;;;;;11.70;10.67;;;23.50;1.00;;;;;;5004557;28;20456;-81
2021/07/05 06:40:33;;;;;;;11.80;10.63;;;23.70;1.00;;;;;;5004919;28;20771;-81
2021/07/05 06:43:03;;;;;;;10.63;9.57;;;23.80;1.00;;;;;;5004039;28;20430;-81
2021/07/05 06:45:32;;;;;;;10.37;9.47;;;23.90;1.00;;;;;;5004405;28;20481;-81
2021/07/05 06:48:00;;;;;;;9.87;8.97;;;24.30;1.00;;;;;;5002495;28;20500;-81
2021/07/05 06:50:29;;;;;;;10.23;9.23;;;24.80;1.00;;;;;;5004860;28;20434;-82
2021/07/05 06:52:57;;;;;;;11.93;10.00;;;24.70;1.00;;;;;;5004595;28;20414;-82
2021/07/05 06:55:25;;;;;;;10.93;9.83;;;24.70;1.00;;;;;;5003210;28;20513;-81
2021/07/05 06:57:54;;;;;;;11.13;9.60;;;24.60;1.00;;;;;;5003534;28;20416;-81
2021/07/05 07:00:25;;;;;;;10.30;9.37;;;24.70;1.00;;;;;;5004220;28;20438;-82
2021/07/05 07:02:54;;;;;;;10.73;9.73;;;24.90;1.00;;;;;;5004553;28;20450;-81
2021/07/05 07:05:24;;;;;;;10.00;9.20;;;25.10;1.00;;;;;;5015152;28;20477;-81
2021/07/05 07:07:53;;;;;;;9.73;8.83;;;25.00;1.00;;;;;;5016428;28;20505;-80
2021/07/05 07:10:24;;;;;;;10.73;9.73;;;25.00;1.00;;;;;;5017445;28;20426;-81
2021/07/05 07:12:54;;;;;;;12.43;9.37;;;24.70;1.00;;;;;;5009380;28;20414;-81
2021/07/05 07:15:49;;;;;;;9.23;8.40;;;24.40;1.00;;;;;;5001762;28;20450;-81
2021/07/05 07:21:19;;;;;;;9.57;8.63;;;24.30;1.00;;;;;;4962567;29;20474;-81
2021/07/05 07:23:47;;;;;;;7.83;7.13;;;24.30;1.00;;;;;;4993373;28;20434;-81
2021/07/05 07:26:15;;;;;;;9.63;8.40;;;24.30;1.00;;;;;;5002538;28;20565;-81
2021/07/05 07:28:43;;;;;;;8.43;7.53;;;24.10;1.00;;;;;;5003172;28;20389;-81
2021/07/05 07:31:12;;;;;;;8.90;8.10;;;23.60;1.00;;;;;;5001651;28;20425;-80
2021/07/05 07:33:41;;;;;;;9.90;8.90;;;23.50;1.00;;;;;;5002831;28;20513;-81
2021/07/05 07:36:10;;;;;;;9.27;8.37;;;23.60;1.00;;;;;;5001326;28;20504;-81
2021/07/05 07:38:41;;;;;;;9.00;8.23;;;23.60;1.00;;;;;;5001988;28;20851;-81
2021/07/05 07:41:09;;;;;;;7.90;7.10;;;23.40;1.00;;;;;;5001871;28;20528;-81
2021/07/05 07:43:37;;;;;;;9.00;8.10;;;23.40;1.00;;;;;;5005578;28;20978;-80
2021/07/05 07:46:05;;;;;;;10.03;9.00;;;23.30;1.00;;;;;;5019578;28;20483;-80
2021/07/05 07:48:34;;;;;;;8.30;7.50;;;22.90;1.00;;;;;;5020437;28;20413;-81
2021/07/05 07:51:03;;;;;;;8.73;8.00;;;22.50;1.00;;;;;;5020810;28;20399;-80
2021/07/05 07:53:31;;;;;;;8.67;7.70;;;22.20;1.00;;;;;;5021115;28;20424;-80
2021/07/05 07:55:59;;;;;;;9.37;8.43;;;21.90;1.00;;;;;;5019229;28;20463;-80
2021/07/05 07:58:28;;;;;;;8.07;7.27;;;21.70;1.00;;;;;;5018887;28;20419;-81
2021/07/05 08:00:56;;;;;;;8.67;7.87;;;21.70;1.00;;;;;;5020169;28;20440;-80
2021/07/05 08:03:29;;;;;;;13.47;8.60;;;21.70;1.00;;;;;;5018794;28;20414;-81
2021/07/05 08:05:59;;;;;;;8.30;7.60;;;21.70;1.00;;;;;;5020627;28;20944;-80
2021/07/05 08:08:27;;;;;;;13.67;9.10;;;21.70;1.00;;;;;;5019959;28;20428;-81
2021/07/05 08:10:55;;;;;;;8.57;7.30;;;21.40;72.00;;;;;;5018232;28;20495;-81
2021/07/05 08:13:23;;;;;;;8.03;7.23;;;21.40;99.90;;;;;;5019632;28;20421;-80
2021/07/05 08:15:52;;;;;;;10.73;7.20;;;21.30;1.00;;;;;;5020041;28;20453;-80
2021/07/05 08:18:21;;;;;;;7.87;7.07;;;21.30;99.90;;;;;;5018504;28;20419;-81
2021/07/05 08:20:49;;;;;;;9.07;8.27;;;21.30;1.00;;;;;;5019652;28;20431;-81
2021/07/05 08:23:19;;;;;;;10.13;7.77;;;21.30;99.90;;;;;;5019390;28;20421;-80
2021/07/05 08:25:47;;;;;;;7.97;7.27;;;21.10;99.90;;;;;;5021012;28;20464;-80
2021/07/05 08:28:15;;;;;;;8.07;7.27;;;20.80;99.90;;;;;;5017685;28;20990;-80
2021/07/05 08:30:44;;;;;;;7.47;6.77;;;20.50;99.90;;;;;;5018850;28;20769;-81
2021/07/05 08:33:12;;;;;;;8.20;7.13;;;20.20;99.90;;;;;;5018695;28;20960;-79
2021/07/05 08:35:40;;;;;;;8.13;7.33;;;20.40;99.90;;;;;;5018775;28;20478;-80
2021/07/05 08:38:08;;;;;;;7.43;5.80;;;20.60;99.90;;;;;;5019209;28;20452;-80
2021/07/05 08:40:38;;;;;;;6.90;6.20;;;20.70;99.90;;;;;;5018701;28;20760;-80
2021/07/05 08:43:06;;;;;;;8.30;5.63;;;20.90;99.90;;;;;;5018662;28;20403;-81
2021/07/05 08:45:34;;;;;;;9.53;5.77;;;20.90;99.90;;;;;;5017075;28;20468;-79
2021/07/05 08:48:04;;;;;;;6.73;6.13;;;20.80;99.90;;;;;;5018952;28;21018;-81
2021/07/05 08:50:33;;;;;;;6.20;5.40;;;20.60;99.90;;;;;;5018444;28;20425;-81
2021/07/05 08:53:01;;;;;;;8.50;6.67;;;20.50;99.90;;;;;;5018248;28;20440;-81
2021/07/05 08:55:30;;;;;;;6.50;5.80;;;20.40;99.90;;;;;;5020224;28;20448;-80
2021/07/05 08:57:59;;;;;;;6.63;5.93;;;20.60;99.90;;;;;;5020239;28;20396;-80
2021/07/05 09:00:32;;;;;;;7.17;5.47;;;21.00;99.90;;;;;;5019394;28;20417;-80
2021/07/05 09:03:01;;;;;;;6.20;5.60;;;21.20;99.90;;;;;;5019058;28;20439;-80
2021/07/05 09:05:30;;;;;;;7.37;6.67;;;21.40;99.90;;;;;;5019751;28;20469;-79
2021/07/05 09:08:02;;;;;;;7.07;6.37;;;21.50;99.90;;;;;;5034232;28;20407;-79
2021/07/05 09:10:44;;;;;;;5.63;5.13;;;21.50;99.90;;;;;;5033391;28;20512;-79
2021/07/05 09:13:17;;;;;;;8.00;6.73;;;21.50;99.90;;;;;;5034026;28;20414;-80
2021/07/05 09:15:47;;;;;;;7.47;6.67;;;21.50;99.90;;;;;;5035075;28;20464;-80
2021/07/05 09:18:37;;;;;;;7.90;7.10;;;21.40;99.90;;;;;;5034308;28;20400;-80
2021/07/05 09:21:18;;;;;;;7.67;6.13;;;21.40;99.90;;;;;;5033751;28;20417;-79
2021/07/05 09:24:02;;;;;;;6.50;5.83;;;21.50;99.90;;;;;;5035320;28;20420;-81
2021/07/05 09:26:33;;;;;;;5.90;5.30;;;21.60;99.90;;;;;;5034770;28;20465;-80
2021/07/05 09:29:05;;;;;;;12.07;6.00;;;21.70;99.90;;;;;;5034452;28;20426;-80
2021/07/05 09:31:36;;;;;;;7.23;6.50;;;21.40;99.90;;;;;;5030581;28;20463;-81
2021/07/05 09:34:14;;;;;;;6.83;6.23;;;21.20;99.90;;;;;;5029389;28;20430;-81
2021/07/05 09:36:43;;;;;;;7.33;6.63;;;21.40;99.90;;;;;;5030695;23;20492;-83
2021/07/05 09:39:14;;;;;;;9.97;8.97;;;21.60;99.90;;;;;;5016521;28;20406;-84
2021/07/05 09:41:42;;;;;;;9.13;8.23;;;21.80;99.90;;;;;;5017034;28;20915;-82
2021/07/05 09:44:15;;;;;;;11.00;9.77;;;22.00;99.90;;;;;;5015848;28;20402;-83
2021/07/05 09:46:48;;;;;;;7.87;7.00;;;22.10;99.90;;;;;;5015539;28;20646;-82
2021/07/05 09:49:28;;;;;;;13.97;10.10;;;22.40;99.90;;;;;;5015852;28;20384;-82
2021/07/05 09:52:12;;;;;;;9.80;8.80;;;22.50;99.90;;;;;;5014875;28;20437;-83
2021/07/05 09:54:42;;;;;;;8.37;7.47;;;22.30;99.90;;;;;;5014410;28;20786;-82
2021/07/05 09:57:26;;;;;;;10.90;9.13;;;22.30;99.90;;;;;;5015843;28;20448;-84
2021/07/05 09:59:59;;;;;;;16.30;9.00;;;22.40;99.90;;;;;;5015194;28;20431;-84
2021/07/05 10:02:27;;;;;;;10.40;9.27;;;22.30;99.90;;;;;;5015069;28;20413;-82
2021/07/05 10:05:12;;;;;;;9.40;8.37;;;22.10;99.90;;;;;;5014661;28;20811;-84
2021/07/05 10:07:41;;;;;;;9.00;8.10;;;22.20;99.90;;;;;;5016850;28;20443;-80
2021/07/05 10:10:12;;;;;;;7.63;7.00;;;22.20;99.90;;;;;;5018129;28;20509;-83
2021/07/05 10:12:51;;;;;;;10.30;6.77;;;22.30;99.90;;;;;;5018002;28;20404;-82
2021/07/05 10:15:22;;;;;;;9.27;8.37;;;22.30;99.90;;;;;;5018264;28;20432;-82
2021/07/05 10:17:51;;;;;;;9.50;7.70;;;22.10;99.90;;;;;;5018245;28;20400;-82
2021/07/05 10:20:23;;;;;;;10.40;8.43;;;22.20;99.90;;;;;;5018848;28;20837;-83
2021/07/05 10:22:53;;;;;;;9.63;6.73;;;22.00;99.90;;;;;;5018064;28;20439;-82
2021/07/05 10:25:23;;;;;;;9.00;8.10;;;21.90;99.90;;;;;;5023076;28;20421;-81
2021/07/05 10:27:52;;;;;;;8.37;7.57;;;22.00;99.90;;;;;;5020678;28;20563;-82
2021/07/05 10:30:23;;;;;;;8.70;7.80;;;22.10;99.90;;;;;;5018755;28;20400;-84
2021/07/05 10:32:52;;;;;;;9.47;7.80;;;22.20;99.90;;;;;;5018547;28;20425;-84
2021/07/05 10:35:24;;;;;;;9.17;8.33;;;22.30;99.90;;;;;;5017507;28;20862;-82
2021/07/05 10:37:57;;;;;;;10.40;9.23;;;22.30;99.90;;;;;;5019325;28;20392;-86
2021/07/05 10:40:30;;;;;;;10.23;8.63;;;22.40;99.90;;;;;;5019482;28;20460;-84
2021/07/05 10:42:59;;;;;;;10.17;7.67;;;22.10;99.90;;;;;;5019324;28;20392;-84
2021/07/05 10:45:42;;;;;;;7.77;7.07;;;22.00;99.90;;;;;;5019146;28;20441;-84
2021/07/05 10:48:12;;;;;;;8.60;7.77;;;22.50;99.90;;;;;;5018255;28;20985;-81
2021/07/05 10:50:59;;;;;;;10.13;8.90;;;22.80;99.90;;;;;;5022306;28;20431;-81
2021/07/05 10:53:54;;;;;;;8.87;7.97;;;22.90;99.90;;;;;;5028223;28;20392;-83
2021/07/05 10:56:36;;;;;;;8.50;7.50;;;23.20;99.90;;;;;;5029116;28;20449;-80
2021/07/05 10:59:40;;;;;;;8.20;7.30;;;23.30;99.90;;;;;;5027303;28;20454;-83
2021/07/05 11:02:44;;;;;;;7.13;6.43;;;23.30;99.90;;;;;;4997783;28;20524;-82
2021/07/05 11:05:40;;;;;;;8.77;7.77;;;23.30;99.90;;;;;;5020779;28;20590;-85
2021/07/05 11:08:27;;;;;;;11.27;8.93;;;22.90;99.90;;;;;;5044507;28;20455;-82
2021/07/05 11:11:19;;;;;;;9.90;7.47;;;22.70;99.90;;;;;;5044320;28;20436;-83
2021/07/05 11:13:48;;;;;;;8.20;7.37;;;22.40;99.90;;;;;;5036250;28;20412;-83
2021/07/05 11:16:16;;;;;;;7.90;6.70;;;22.40;99.90;;;;;;5020642;28;20437;-83
2021/07/05 11:19:10;;;;;;;7.47;6.70;;;22.50;99.90;;;;;;5022143;28;20441;-82
2021/07/05 11:21:56;;;;;;;6.40;5.50;;;22.40;99.90;;;;;;5021784;28;20434;-81
2021/07/05 11:24:45;;;;;;;6.07;5.47;;;22.30;99.90;;;;;;5018032;28;20456;-81
2021/07/05 11:27:49;;;;;;;8.00;5.40;;;22.30;99.90;;;;;;5018360;28;20469;-83
2021/07/05 11:30:32;;;;;;;9.07;5.70;;;22.50;99.90;;;;;;5018563;28;20464;-83
2021/07/05 11:33:04;;;;;;;7.00;6.30;;;22.60;99.90;;;;;;5028581;28;20428;-83
2021/07/05 11:35:46;;;;;;;5.40;4.90;;;22.70;99.90;;;;;;5037748;28;20529;-84
2021/07/05 11:38:25;;;;;;;5.50;5.00;;;22.70;99.90;;;;;;5037904;28;20416;-83
2021/07/05 11:40:56;;;;;;;6.60;5.53;;;22.60;99.90;;;;;;5046471;28;20438;-84
2021/07/05 11:43:52;;;;;;;5.80;5.20;;;22.60;99.90;;;;;;5047201;28;20428;-83
2021/07/05 11:46:47;;;;;;;5.67;5.07;;;22.90;99.90;;;;;;5044288;28;20448;-81
2021/07/05 11:49:19;;;;;;;5.90;4.70;;;23.10;99.90;;;;;;5030495;28;20397;-83
2021/07/05 11:51:56;;;;;;;5.27;4.77;;;23.30;99.90;;;;;;5017945;28;20445;-82
2021/07/05 11:54:31;;;;;;;5.67;5.17;;;23.50;99.90;;;;;;5032873;28;20415;-83
2021/07/05 11:57:03;;;;;;;5.57;4.40;;;24.20;99.90;;;;;;5017635;28;20488;-80
2021/07/05 11:59:32;;;;;;;5.60;5.20;;;24.80;99.90;;;;;;5017594;28;20380;-82
2021/07/05 12:02:03;;;;;;;5.50;4.73;;;25.40;99.90;;;;;;5018786;28;20458;-84
2021/07/05 12:04:34;;;;;;;4.03;3.73;;;25.80;99.90;;;;;;5018555;28;20966;-82
2021/07/05 12:07:07;;;;;;;5.57;4.53;;;25.70;99.90;;;;;;5034861;28;20547;-84
2021/07/05 12:09:37;;;;;;;4.87;4.10;;;25.80;99.90;;;;;;5018523;28;20420;-82
2021/07/05 12:12:11;;;;;;;4.83;4.30;;;25.80;99.90;;;;;;5016806;28;20548;-82
2021/07/05 12:14:40;;;;;;;12.63;7.87;;;24.90;99.90;;;;;;5017597;28;20457;-80
2021/07/05 12:17:09;;;;;;;17.50;7.07;;;24.60;99.90;;;;;;5016185;28;20536;-80
2021/07/05 12:19:41;;;;;;;6.13;5.07;;;24.60;99.90;;;;;;5015889;28;20425;-80
2021/07/05 12:22:13;;;;;;;8.40;4.97;;;24.80;99.90;;;;;;5008724;28;20404;-79
2021/07/05 12:24:44;;;;;;;5.43;3.97;;;24.60;99.90;;;;;;4994883;28;20464;-83
2021/07/05 12:27:14;;;;;;;5.87;5.10;;;24.70;99.90;;;;;;4994197;28;20441;-81
2021/07/05 12:29:49;;;;;;;5.93;5.33;;;25.10;99.90;;;;;;4999774;28;20837;-83
2021/07/05 12:32:20;;;;;;;6.33;5.47;;;25.40;99.90;;;;;;5034756;28;20905;-83
2021/07/05 12:34:55;;;;;;;5.40;4.90;;;25.40;99.90;;;;;;5035106;28;20520;-83
2021/07/05 12:37:31;;;;;;;8.40;5.80;;;25.70;99.90;;;;;;5033069;28;20451;-83
2021/07/05 12:40:05;;;;;;;8.23;5.73;;;25.90;99.90;;;;;;5034044;28;20408;-84
2021/07/05 12:42:37;;;;;;;8.47;5.70;;;26.30;99.90;;;;;;5028288;28;20773;-80
2021/07/05 12:45:18;;;;;;;5.47;4.97;;;26.10;99.90;;;;;;4999259;28;20484;-83
2021/07/05 12:47:52;;;;;;;6.00;4.77;;;26.10;99.90;;;;;;5000729;28;20496;-84
2021/07/05 12:50:22;;;;;;;5.67;5.27;;;25.90;99.90;;;;;;5000252;28;20500;-81
2021/07/05 12:53:11;;;;;;;4.97;4.57;;;26.00;99.90;;;;;;5000909;28;20414;-83
2021/07/05 12:55:49;;;;;;;5.00;4.50;;;26.10;99.90;;;;;;4998852;28;20454;-83
2021/07/05 12:58:33;;;;;;;6.27;5.67;;;26.50;99.90;;;;;;5002427;28;20450;-83
2021/07/05 13:01:01;;;;;;;4.90;4.40;;;26.50;99.90;;;;;;5003347;28;20410;-82
2021/07/05 13:03:30;;;;;;;4.67;4.20;;;26.20;99.90;;;;;;4998473;28;20544;-84